sensor_id;sensor_type;location;lat;lon;timestamp;P1;durP1;ratioP1;P2;durP2;ratioP2
66429;SDS011;53242;51.694;10.006;2024-02-21T00:01:38;10.13;;;3.20;;
66429;SDS011;53242;51.694;10.006;2024-02-21T00:04:01;15.43;;;3.30;;
66429;SDS011;53242;51.694;10.006;2024-02-21T00:06:24;13.13;;;2.92;;
66429;SDS011;53242;51.694;10.006;2024-02-21T00:08:48;6.68;;;2.28;;
66429;SDS011;53242;51.694;10.006;2024-02-21T00:11:10;12.70;;;2.80;;
66429;SDS011;53242;51.694;10.006;2024-02-21T00:13:32;13.48;;;3.67;;
66429;SDS011;53242;51.694;10.006;2024-02-21T00:15:55;12.38;;;3.13;;
66429;SDS011;53242;51.694;10.006;2024-02-21T00:18:17;10.63;;;2.80;;
66429;SDS011;53242;51.694;10.006;2024-02-21T00:20:40;9.75;;;2.75;;
66429;SDS011;53242;51.694;10.006;2024-02-21T00:23:02;12.80;;;3.10;;
66429;SDS011;53242;51.694;10.006;2024-02-21T00:25:25;9.30;;;2.63;;
66429;SDS011;53242;51.694;10.006;2024-02-21T00:27:47;15.98;;;3.33;;
66429;SDS011;53242;51.694;10.006;2024-02-21T00:30:10;12.77;;;3.25;;
66429;SDS011;53242;51.694;10.006;2024-02-21T00:32:32;10.10;;;3.30;;
66429;SDS011;53242;51.694;10.006;2024-02-21T00:34:56;10.93;;;2.92;;
66429;SDS011;53242;51.694;10.006;2024-02-21T00:37:18;11.45;;;2.97;;
66429;SDS011;53242;51.694;10.006;2024-02-21T00:39:41;10.63;;;2.67;;
66429;SDS011;53242;51.694;10.006;2024-02-21T00:42:04;14.15;;;3.33;;
66429;SDS011;53242;51.694;10.006;2024-02-21T00:44:27;10.90;;;2.97;;
66429;SDS011;53242;51.694;10.006;2024-02-21T00:46:49;10.02;;;3.67;;
66429;SDS011;53242;51.694;10.006;2024-02-21T00:49:11;8.32;;;2.70;;
66429;SDS011;53242;51.694;10.006;2024-02-21T00:51:34;7.05;;;2.65;;
66429;SDS011;53242;51.694;10.006;2024-02-21T00:53:56;12.73;;;2.85;;
66429;SDS011;53242;51.694;10.006;2024-02-21T00:56:19;11.73;;;2.90;;
66429;SDS011;53242;51.694;10.006;2024-02-21T00:58:41;9.25;;;2.83;;
66429;SDS011;53242;51.694;10.006;2024-02-21T01:01:04;15.40;;;3.67;;
66429;SDS011;53242;51.694;10.006;2024-02-21T01:03:26;12.10;;;2.78;;
66429;SDS011;53242;51.694;10.006;2024-02-21T01:05:48;10.15;;;3.00;;
66429;SDS011;53242;51.694;10.006;2024-02-21T01:08:11;13.25;;;3.00;;
66429;SDS011;53242;51.694;10.006;2024-02-21T01:10:33;21.75;;;3.33;;
66429;SDS011;53242;51.694;10.006;2024-02-21T01:12:56;10.23;;;2.45;;
66429;SDS011;53242;51.694;10.006;2024-02-21T01:15:18;11.40;;;3.10;;
66429;SDS011;53242;51.694;10.006;2024-02-21T01:17:40;9.63;;;2.92;;
66429;SDS011;53242;51.694;10.006;2024-02-21T01:20:03;11.70;;;3.05;;
66429;SDS011;53242;51.694;10.006;2024-02-21T01:22:27;13.38;;;2.88;;
66429;SDS011;53242;51.694;10.006;2024-02-21T01:24:50;9.43;;;3.00;;
66429;SDS011;53242;51.694;10.006;2024-02-21T01:27:13;10.50;;;3.05;;
66429;SDS011;53242;51.694;10.006;2024-02-21T01:29:35;11.98;;;2.90;;
66429;SDS011;53242;51.694;10.006;2024-02-21T01:31:57;11.00;;;2.75;;
66429;SDS011;53242;51.694;10.006;2024-02-21T01:34:20;10.68;;;2.83;;
66429;SDS011;53242;51.694;10.006;2024-02-21T01:36:42;14.43;;;3.00;;
66429;SDS011;53242;51.694;10.006;2024-02-21T01:39:05;11.85;;;2.70;;
66429;SDS011;53242;51.694;10.006;2024-02-21T01:41:29;13.48;;;3.17;;
66429;SDS011;53242;51.694;10.006;2024-02-21T01:43:52;10.80;;;2.78;;
66429;SDS011;53242;51.694;10.006;2024-02-21T01:46:15;8.85;;;2.78;;
66429;SDS011;53242;51.694;10.006;2024-02-21T01:48:37;9.15;;;2.67;;
66429;SDS011;53242;51.694;10.006;2024-02-21T01:51:00;12.65;;;3.33;;
66429;SDS011;53242;51.694;10.006;2024-02-21T01:53:27;9.02;;;3.10;;
66429;SDS011;53242;51.694;10.006;2024-02-21T01:55:52;11.57;;;3.15;;
66429;SDS011;53242;51.694;10.006;2024-02-21T01:58:15;10.98;;;3.08;;
66429;SDS011;53242;51.694;10.006;2024-02-21T02:00:38;14.05;;;2.92;;
66429;SDS011;53242;51.694;10.006;2024-02-21T02:03:04;12.27;;;3.40;;
66429;SDS011;53242;51.694;10.006;2024-02-21T02:05:26;10.70;;;3.28;;
66429;SDS011;53242;51.694;10.006;2024-02-21T02:07:49;14.65;;;3.50;;
66429;SDS011;53242;51.694;10.006;2024-02-21T02:10:11;13.95;;;3.15;;
66429;SDS011;53242;51.694;10.006;2024-02-21T02:12:34;12.15;;;3.30;;
66429;SDS011;53242;51.694;10.006;2024-02-21T02:15:00;13.95;;;3.90;;
66429;SDS011;53242;51.694;10.006;2024-02-21T02:17:22;16.08;;;3.83;;
66429;SDS011;53242;51.694;10.006;2024-02-21T02:19:45;11.40;;;3.25;;
66429;SDS011;53242;51.694;10.006;2024-02-21T02:22:09;11.73;;;3.30;;
66429;SDS011;53242;51.694;10.006;2024-02-21T02:24:39;12.98;;;3.33;;
66429;SDS011;53242;51.694;10.006;2024-02-21T02:27:02;10.70;;;3.00;;
66429;SDS011;53242;51.694;10.006;2024-02-21T02:29:24;14.73;;;3.47;;
66429;SDS011;53242;51.694;10.006;2024-02-21T02:31:47;11.00;;;3.53;;
66429;SDS011;53242;51.694;10.006;2024-02-21T02:34:09;13.35;;;3.55;;
66429;SDS011;53242;51.694;10.006;2024-02-21T02:36:32;15.98;;;3.70;;
66429;SDS011;53242;51.694;10.006;2024-02-21T02:38:55;10.85;;;3.60;;
66429;SDS011;53242;51.694;10.006;2024-02-21T02:41:18;12.98;;;3.83;;
66429;SDS011;53242;51.694;10.006;2024-02-21T02:43:40;11.18;;;3.33;;
66429;SDS011;53242;51.694;10.006;2024-02-21T02:46:02;14.88;;;3.67;;
66429;SDS011;53242;51.694;10.006;2024-02-21T02:48:25;13.93;;;3.72;;
66429;SDS011;53242;51.694;10.006;2024-02-21T02:50:48;13.25;;;3.95;;
66429;SDS011;53242;51.694;10.006;2024-02-21T02:53:11;11.13;;;3.28;;
66429;SDS011;53242;51.694;10.006;2024-02-21T02:55:34;15.80;;;4.45;;
66429;SDS011;53242;51.694;10.006;2024-02-21T02:57:57;12.65;;;3.78;;
66429;SDS011;53242;51.694;10.006;2024-02-21T03:00:20;13.45;;;3.80;;
66429;SDS011;53242;51.694;10.006;2024-02-21T03:02:43;15.70;;;3.80;;
66429;SDS011;53242;51.694;10.006;2024-02-21T03:05:11;11.70;;;3.42;;
66429;SDS011;53242;51.694;10.006;2024-02-21T03:07:36;12.23;;;3.65;;
66429;SDS011;53242;51.694;10.006;2024-02-21T03:09:58;12.25;;;3.85;;
66429;SDS011;53242;51.694;10.006;2024-02-21T03:12:21;12.90;;;4.47;;
66429;SDS011;53242;51.694;10.006;2024-02-21T03:14:50;12.10;;;2.90;;
66429;SDS011;53242;51.694;10.006;2024-02-21T03:17:12;14.15;;;3.55;;
66429;SDS011;53242;51.694;10.006;2024-02-21T03:19:35;13.95;;;3.40;;
66429;SDS011;53242;51.694;10.006;2024-02-21T03:21:57;7.55;;;2.85;;
66429;SDS011;53242;51.694;10.006;2024-02-21T03:24:20;14.20;;;4.13;;
66429;SDS011;53242;51.694;10.006;2024-02-21T03:26:42;14.07;;;4.32;;
66429;SDS011;53242;51.694;10.006;2024-02-21T03:29:05;14.85;;;3.90;;
66429;SDS011;53242;51.694;10.006;2024-02-21T03:31:28;17.73;;;4.82;;
66429;SDS011;53242;51.694;10.006;2024-02-21T03:33:51;19.63;;;6.88;;
66429;SDS011;53242;51.694;10.006;2024-02-21T03:36:14;22.52;;;7.57;;
66429;SDS011;53242;51.694;10.006;2024-02-21T03:38:37;19.67;;;6.15;;
66429;SDS011;53242;51.694;10.006;2024-02-21T03:40:59;19.23;;;6.28;;
66429;SDS011;53242;51.694;10.006;2024-02-21T03:43:22;17.77;;;6.38;;
66429;SDS011;53242;51.694;10.006;2024-02-21T03:45:44;11.82;;;4.97;;
66429;SDS011;53242;51.694;10.006;2024-02-21T03:48:06;16.67;;;5.97;;
66429;SDS011;53242;51.694;10.006;2024-02-21T03:50:29;15.70;;;5.40;;
66429;SDS011;53242;51.694;10.006;2024-02-21T03:52:51;16.83;;;6.47;;
66429;SDS011;53242;51.694;10.006;2024-02-21T03:55:14;15.27;;;4.80;;
66429;SDS011;53242;51.694;10.006;2024-02-21T03:57:36;14.85;;;5.00;;
66429;SDS011;53242;51.694;10.006;2024-02-21T03:59:58;19.02;;;7.10;;
66429;SDS011;53242;51.694;10.006;2024-02-21T04:02:21;15.07;;;5.28;;
66429;SDS011;53242;51.694;10.006;2024-02-21T04:04:44;16.05;;;5.28;;
66429;SDS011;53242;51.694;10.006;2024-02-21T04:07:08;17.70;;;6.15;;
66429;SDS011;53242;51.694;10.006;2024-02-21T04:09:31;10.98;;;3.92;;
66429;SDS011;53242;51.694;10.006;2024-02-21T04:11:53;14.45;;;4.97;;
66429;SDS011;53242;51.694;10.006;2024-02-21T04:14:16;16.88;;;5.45;;
66429;SDS011;53242;51.694;10.006;2024-02-21T04:16:38;13.27;;;4.15;;
66429;SDS011;53242;51.694;10.006;2024-02-21T04:19:01;18.25;;;5.82;;
66429;SDS011;53242;51.694;10.006;2024-02-21T04:21:24;12.70;;;3.40;;
66429;SDS011;53242;51.694;10.006;2024-02-21T04:23:46;15.13;;;5.05;;
66429;SDS011;53242;51.694;10.006;2024-02-21T04:26:09;14.93;;;5.03;;
66429;SDS011;53242;51.694;10.006;2024-02-21T04:28:31;12.52;;;3.92;;
66429;SDS011;53242;51.694;10.006;2024-02-21T04:30:54;13.70;;;4.13;;
66429;SDS011;53242;51.694;10.006;2024-02-21T04:33:16;13.77;;;4.90;;
66429;SDS011;53242;51.694;10.006;2024-02-21T04:35:39;16.08;;;4.70;;
66429;SDS011;53242;51.694;10.006;2024-02-21T04:38:01;14.23;;;4.20;;
66429;SDS011;53242;51.694;10.006;2024-02-21T04:40:24;16.63;;;4.53;;
66429;SDS011;53242;51.694;10.006;2024-02-21T04:42:46;16.42;;;4.38;;
66429;SDS011;53242;51.694;10.006;2024-02-21T04:45:09;16.83;;;4.72;;
66429;SDS011;53242;51.694;10.006;2024-02-21T04:47:31;14.07;;;3.95;;
66429;SDS011;53242;51.694;10.006;2024-02-21T04:49:54;15.38;;;4.68;;
66429;SDS011;53242;51.694;10.006;2024-02-21T04:52:16;11.40;;;3.28;;
66429;SDS011;53242;51.694;10.006;2024-02-21T04:54:38;16.33;;;4.18;;
66429;SDS011;53242;51.694;10.006;2024-02-21T04:57:01;15.48;;;3.75;;
66429;SDS011;53242;51.694;10.006;2024-02-21T04:59:23;13.35;;;4.13;;
66429;SDS011;53242;51.694;10.006;2024-02-21T05:01:46;14.05;;;3.97;;
66429;SDS011;53242;51.694;10.006;2024-02-21T05:04:08;15.07;;;3.90;;
66429;SDS011;53242;51.694;10.006;2024-02-21T05:06:30;17.88;;;3.78;;
66429;SDS011;53242;51.694;10.006;2024-02-21T05:08:53;16.00;;;4.10;;
66429;SDS011;53242;51.694;10.006;2024-02-21T05:11:17;11.43;;;3.83;;
66429;SDS011;53242;51.694;10.006;2024-02-21T05:13:39;10.20;;;2.80;;
66429;SDS011;53242;51.694;10.006;2024-02-21T05:16:02;15.30;;;4.75;;
66429;SDS011;53242;51.694;10.006;2024-02-21T05:18:25;14.85;;;4.18;;
66429;SDS011;53242;51.694;10.006;2024-02-21T05:20:47;11.20;;;3.88;;
66429;SDS011;53242;51.694;10.006;2024-02-21T05:23:09;16.33;;;4.07;;
66429;SDS011;53242;51.694;10.006;2024-02-21T05:25:32;15.48;;;4.20;;
66429;SDS011;53242;51.694;10.006;2024-02-21T05:27:54;14.90;;;3.40;;
66429;SDS011;53242;51.694;10.006;2024-02-21T05:30:17;9.88;;;3.00;;
66429;SDS011;53242;51.694;10.006;2024-02-21T05:32:40;13.55;;;3.88;;
66429;SDS011;53242;51.694;10.006;2024-02-21T05:35:02;14.10;;;3.83;;
66429;SDS011;53242;51.694;10.006;2024-02-21T05:37:25;10.60;;;3.42;;
66429;SDS011;53242;51.694;10.006;2024-02-21T05:39:47;16.02;;;4.25;;
66429;SDS011;53242;51.694;10.006;2024-02-21T05:42:10;15.88;;;3.90;;
66429;SDS011;53242;51.694;10.006;2024-02-21T05:44:32;17.15;;;4.35;;
66429;SDS011;53242;51.694;10.006;2024-02-21T05:46:54;11.60;;;4.05;;
66429;SDS011;53242;51.694;10.006;2024-02-21T05:49:17;12.18;;;3.88;;
66429;SDS011;53242;51.694;10.006;2024-02-21T05:51:39;13.95;;;3.72;;
66429;SDS011;53242;51.694;10.006;2024-02-21T05:54:02;13.98;;;4.22;;
66429;SDS011;53242;51.694;10.006;2024-02-21T05:56:24;15.38;;;4.80;;
66429;SDS011;53242;51.694;10.006;2024-02-21T05:58:46;12.73;;;4.22;;
66429;SDS011;53242;51.694;10.006;2024-02-21T06:01:10;12.77;;;4.15;;
66429;SDS011;53242;51.694;10.006;2024-02-21T06:03:34;14.68;;;4.65;;
66429;SDS011;53242;51.694;10.006;2024-02-21T06:05:56;14.20;;;3.90;;
66429;SDS011;53242;51.694;10.006;2024-02-21T06:08:19;17.27;;;3.80;;
66429;SDS011;53242;51.694;10.006;2024-02-21T06:10:42;14.30;;;4.13;;
66429;SDS011;53242;51.694;10.006;2024-02-21T06:13:04;13.88;;;4.57;;
66429;SDS011;53242;51.694;10.006;2024-02-21T06:15:27;15.15;;;4.70;;
66429;SDS011;53242;51.694;10.006;2024-02-21T06:17:49;30.52;;;11.10;;
66429;SDS011;53242;51.694;10.006;2024-02-21T06:20:11;36.25;;;12.93;;
66429;SDS011;53242;51.694;10.006;2024-02-21T06:22:34;39.90;;;14.25;;
66429;SDS011;53242;51.694;10.006;2024-02-21T06:24:56;13.52;;;5.05;;
66429;SDS011;53242;51.694;10.006;2024-02-21T06:27:18;18.92;;;4.68;;
66429;SDS011;53242;51.694;10.006;2024-02-21T06:29:41;14.25;;;4.60;;
66429;SDS011;53242;51.694;10.006;2024-02-21T06:32:04;14.18;;;4.72;;
66429;SDS011;53242;51.694;10.006;2024-02-21T06:34:26;12.60;;;4.63;;
66429;SDS011;53242;51.694;10.006;2024-02-21T06:36:48;14.13;;;4.57;;
66429;SDS011;53242;51.694;10.006;2024-02-21T06:39:11;12.18;;;3.03;;
66429;SDS011;53242;51.694;10.006;2024-02-21T06:41:33;11.63;;;3.47;;
66429;SDS011;53242;51.694;10.006;2024-02-21T06:43:56;13.68;;;4.50;;
66429;SDS011;53242;51.694;10.006;2024-02-21T06:48:48;18.08;;;4.65;;
66429;SDS011;53242;51.694;10.006;2024-02-21T06:51:10;16.05;;;4.90;;
66429;SDS011;53242;51.694;10.006;2024-02-21T06:53:33;16.13;;;4.82;;
66429;SDS011;53242;51.694;10.006;2024-02-21T06:55:55;17.45;;;4.68;;
66429;SDS011;53242;51.694;10.006;2024-02-21T06:58:18;15.95;;;4.43;;
66429;SDS011;53242;51.694;10.006;2024-02-21T07:00:42;16.88;;;5.20;;
66429;SDS011;53242;51.694;10.006;2024-02-21T07:03:04;13.68;;;4.65;;
66429;SDS011;53242;51.694;10.006;2024-02-21T07:05:27;13.65;;;4.18;;
66429;SDS011;53242;51.694;10.006;2024-02-21T07:07:49;13.95;;;4.60;;
66429;SDS011;53242;51.694;10.006;2024-02-21T07:10:12;15.38;;;4.25;;
66429;SDS011;53242;51.694;10.006;2024-02-21T07:12:34;14.48;;;4.38;;
66429;SDS011;53242;51.694;10.006;2024-02-21T07:14:59;13.32;;;4.03;;
66429;SDS011;53242;51.694;10.006;2024-02-21T07:17:21;12.77;;;4.32;;
66429;SDS011;53242;51.694;10.006;2024-02-21T07:19:43;17.48;;;4.65;;
66429;SDS011;53242;51.694;10.006;2024-02-21T07:22:06;17.23;;;4.85;;
66429;SDS011;53242;51.694;10.006;2024-02-21T07:24:28;17.08;;;4.72;;
66429;SDS011;53242;51.694;10.006;2024-02-21T07:26:51;16.70;;;4.95;;
66429;SDS011;53242;51.694;10.006;2024-02-21T07:29:13;14.00;;;4.65;;
66429;SDS011;53242;51.694;10.006;2024-02-21T07:31:42;14.90;;;4.38;;
66429;SDS011;53242;51.694;10.006;2024-02-21T07:34:05;14.88;;;3.70;;
66429;SDS011;53242;51.694;10.006;2024-02-21T07:36:30;14.32;;;4.53;;
66429;SDS011;53242;51.694;10.006;2024-02-21T07:38:52;21.48;;;6.93;;
66429;SDS011;53242;51.694;10.006;2024-02-21T07:41:15;15.13;;;4.18;;
66429;SDS011;53242;51.694;10.006;2024-02-21T07:43:37;16.27;;;5.15;;
66429;SDS011;53242;51.694;10.006;2024-02-21T07:45:59;14.80;;;4.15;;
66429;SDS011;53242;51.694;10.006;2024-02-21T07:48:22;17.38;;;4.75;;
66429;SDS011;53242;51.694;10.006;2024-02-21T07:50:46;12.80;;;4.10;;
66429;SDS011;53242;51.694;10.006;2024-02-21T07:53:09;11.98;;;4.15;;
66429;SDS011;53242;51.694;10.006;2024-02-21T07:55:31;13.45;;;4.80;;
66429;SDS011;53242;51.694;10.006;2024-02-21T07:57:53;14.75;;;4.43;;
66429;SDS011;53242;51.694;10.006;2024-02-21T08:00:16;12.25;;;3.72;;
66429;SDS011;53242;51.694;10.006;2024-02-21T08:02:41;10.57;;;3.72;;
66429;SDS011;53242;51.694;10.006;2024-02-21T08:05:05;9.95;;;3.85;;
66429;SDS011;53242;51.694;10.006;2024-02-21T08:07:28;15.63;;;4.22;;
66429;SDS011;53242;51.694;10.006;2024-02-21T08:09:51;10.95;;;4.05;;
66429;SDS011;53242;51.694;10.006;2024-02-21T08:12:13;11.35;;;3.95;;
66429;SDS011;53242;51.694;10.006;2024-02-21T08:14:36;10.45;;;3.60;;
66429;SDS011;53242;51.694;10.006;2024-02-21T08:16:58;13.00;;;4.03;;
66429;SDS011;53242;51.694;10.006;2024-02-21T08:19:21;12.98;;;4.28;;
66429;SDS011;53242;51.694;10.006;2024-02-21T08:21:44;14.63;;;4.25;;
66429;SDS011;53242;51.694;10.006;2024-02-21T08:24:09;18.35;;;4.53;;
66429;SDS011;53242;51.694;10.006;2024-02-21T08:26:32;14.32;;;4.00;;
66429;SDS011;53242;51.694;10.006;2024-02-21T08:28:55;12.35;;;3.67;;
66429;SDS011;53242;51.694;10.006;2024-02-21T08:31:20;15.25;;;4.07;;
66429;SDS011;53242;51.694;10.006;2024-02-21T08:33:43;13.00;;;3.80;;
66429;SDS011;53242;51.694;10.006;2024-02-21T08:36:05;13.65;;;4.05;;
66429;SDS011;53242;51.694;10.006;2024-02-21T08:38:28;12.52;;;4.43;;
66429;SDS011;53242;51.694;10.006;2024-02-21T08:40:50;12.02;;;3.97;;
66429;SDS011;53242;51.694;10.006;2024-02-21T08:43:13;13.52;;;4.30;;
66429;SDS011;53242;51.694;10.006;2024-02-21T08:45:35;9.73;;;3.47;;
66429;SDS011;53242;51.694;10.006;2024-02-21T08:47:57;12.18;;;3.90;;
66429;SDS011;53242;51.694;10.006;2024-02-21T08:50:20;12.32;;;4.40;;
66429;SDS011;53242;51.694;10.006;2024-02-21T08:52:42;8.82;;;3.55;;
66429;SDS011;53242;51.694;10.006;2024-02-21T08:55:05;15.63;;;3.75;;
66429;SDS011;53242;51.694;10.006;2024-02-21T08:57:28;10.35;;;3.72;;
66429;SDS011;53242;51.694;10.006;2024-02-21T08:59:50;11.25;;;3.80;;
66429;SDS011;53242;51.694;10.006;2024-02-21T09:02:13;10.93;;;4.30;;
66429;SDS011;53242;51.694;10.006;2024-02-21T09:04:38;12.25;;;3.53;;
66429;SDS011;53242;51.694;10.006;2024-02-21T09:07:00;10.02;;;3.10;;
66429;SDS011;53242;51.694;10.006;2024-02-21T09:09:22;12.88;;;4.03;;
66429;SDS011;53242;51.694;10.006;2024-02-21T09:11:45;7.32;;;2.60;;
66429;SDS011;53242;51.694;10.006;2024-02-21T09:14:07;11.52;;;3.20;;
66429;SDS011;53242;51.694;10.006;2024-02-21T09:16:31;11.07;;;2.92;;
66429;SDS011;53242;51.694;10.006;2024-02-21T09:18:54;9.15;;;3.20;;
66429;SDS011;53242;51.694;10.006;2024-02-21T09:21:16;10.45;;;3.38;;
66429;SDS011;53242;51.694;10.006;2024-02-21T09:23:38;8.90;;;2.42;;
66429;SDS011;53242;51.694;10.006;2024-02-21T09:26:01;9.82;;;3.13;;
66429;SDS011;53242;51.694;10.006;2024-02-21T09:28:26;9.63;;;3.47;;
66429;SDS011;53242;51.694;10.006;2024-02-21T09:30:48;10.73;;;3.20;;
66429;SDS011;53242;51.694;10.006;2024-02-21T09:33:10;9.25;;;3.00;;
66429;SDS011;53242;51.694;10.006;2024-02-21T09:35:33;11.60;;;3.28;;
66429;SDS011;53242;51.694;10.006;2024-02-21T09:37:56;12.70;;;3.13;;
66429;SDS011;53242;51.694;10.006;2024-02-21T09:40:18;8.32;;;2.80;;
66429;SDS011;53242;51.694;10.006;2024-02-21T09:42:41;11.35;;;2.97;;
66429;SDS011;53242;51.694;10.006;2024-02-21T09:45:04;13.05;;;3.20;;
66429;SDS011;53242;51.694;10.006;2024-02-21T09:47:34;9.00;;;2.88;;
66429;SDS011;53242;51.694;10.006;2024-02-21T09:50:05;10.23;;;3.17;;
66429;SDS011;53242;51.694;10.006;2024-02-21T09:52:29;11.20;;;3.30;;
66429;SDS011;53242;51.694;10.006;2024-02-21T09:54:51;7.68;;;3.17;;
66429;SDS011;53242;51.694;10.006;2024-02-21T09:57:14;10.48;;;3.20;;
66429;SDS011;53242;51.694;10.006;2024-02-21T09:59:37;9.93;;;2.95;;
66429;SDS011;53242;51.694;10.006;2024-02-21T10:02:00;8.52;;;2.72;;
66429;SDS011;53242;51.694;10.006;2024-02-21T10:04:23;6.40;;;1.85;;
66429;SDS011;53242;51.694;10.006;2024-02-21T10:06:45;11.77;;;2.97;;
66429;SDS011;53242;51.694;10.006;2024-02-21T10:09:08;7.57;;;2.85;;
66429;SDS011;53242;51.694;10.006;2024-02-21T10:11:30;9.27;;;2.63;;
66429;SDS011;53242;51.694;10.006;2024-02-21T10:14:03;7.80;;;2.70;;
66429;SDS011;53242;51.694;10.006;2024-02-21T10:16:28;9.55;;;2.88;;
66429;SDS011;53242;51.694;10.006;2024-02-21T10:18:53;12.38;;;2.80;;
66429;SDS011;53242;51.694;10.006;2024-02-21T10:21:16;9.55;;;2.90;;
66429;SDS011;53242;51.694;10.006;2024-02-21T10:26:08;8.80;;;2.75;;
66429;SDS011;53242;51.694;10.006;2024-02-21T10:28:31;6.88;;;2.72;;
66429;SDS011;53242;51.694;10.006;2024-02-21T10:30:54;8.38;;;2.70;;
66429;SDS011;53242;51.694;10.006;2024-02-21T10:33:16;8.20;;;2.70;;
66429;SDS011;53242;51.694;10.006;2024-02-21T10:35:38;9.10;;;2.67;;
66429;SDS011;53242;51.694;10.006;2024-02-21T10:38:01;13.65;;;3.30;;
66429;SDS011;53242;51.694;10.006;2024-02-21T10:40:27;11.60;;;3.22;;
66429;SDS011;53242;51.694;10.006;2024-02-21T10:42:57;9.48;;;3.15;;
66429;SDS011;53242;51.694;10.006;2024-02-21T10:45:21;9.20;;;2.75;;
66429;SDS011;53242;51.694;10.006;2024-02-21T10:47:50;10.43;;;3.20;;
66429;SDS011;53242;51.694;10.006;2024-02-21T10:50:16;10.55;;;3.35;;
66429;SDS011;53242;51.694;10.006;2024-02-21T10:55:25;11.77;;;2.78;;
66429;SDS011;53242;51.694;10.006;2024-02-21T10:57:55;10.80;;;3.25;;
66429;SDS011;53242;51.694;10.006;2024-02-21T11:00:19;8.40;;;2.42;;
66429;SDS011;53242;51.694;10.006;2024-02-21T11:02:41;14.35;;;4.40;;
66429;SDS011;53242;51.694;10.006;2024-02-21T11:05:04;10.35;;;3.03;;
66429;SDS011;53242;51.694;10.006;2024-02-21T11:07:29;7.93;;;2.60;;
66429;SDS011;53242;51.694;10.006;2024-02-21T11:09:54;8.98;;;2.42;;
66429;SDS011;53242;51.694;10.006;2024-02-21T11:12:19;8.93;;;2.88;;
66429;SDS011;53242;51.694;10.006;2024-02-21T11:14:42;9.43;;;3.15;;
66429;SDS011;53242;51.694;10.006;2024-02-21T11:19:48;6.38;;;2.58;;
66429;SDS011;53242;51.694;10.006;2024-02-21T11:22:14;11.43;;;3.75;;
66429;SDS011;53242;51.694;10.006;2024-02-21T11:24:38;10.68;;;2.60;;
66429;SDS011;53242;51.694;10.006;2024-02-21T11:29:46;7.97;;;2.78;;
66429;SDS011;53242;51.694;10.006;2024-02-21T11:32:11;8.05;;;2.38;;
66429;SDS011;53242;51.694;10.006;2024-02-21T11:34:37;10.32;;;2.90;;
66429;SDS011;53242;51.694;10.006;2024-02-21T11:36:59;7.78;;;3.00;;
66429;SDS011;53242;51.694;10.006;2024-02-21T11:39:23;9.02;;;2.60;;
66429;SDS011;53242;51.694;10.006;2024-02-21T11:42:03;9.48;;;2.75;;
66429;SDS011;53242;51.694;10.006;2024-02-21T11:44:27;8.82;;;2.67;;
66429;SDS011;53242;51.694;10.006;2024-02-21T11:46:50;4.75;;;2.10;;
66429;SDS011;53242;51.694;10.006;2024-02-21T11:49:12;7.25;;;2.40;;
66429;SDS011;53242;51.694;10.006;2024-02-21T11:51:35;9.65;;;2.63;;
66429;SDS011;53242;51.694;10.006;2024-02-21T11:53:57;8.52;;;2.72;;
66429;SDS011;53242;51.694;10.006;2024-02-21T11:56:20;9.70;;;2.88;;
66429;SDS011;53242;51.694;10.006;2024-02-21T11:58:42;9.95;;;2.75;;
66429;SDS011;53242;51.694;10.006;2024-02-21T12:01:05;8.40;;;2.70;;
66429;SDS011;53242;51.694;10.006;2024-02-21T12:03:29;8.10;;;2.58;;
66429;SDS011;53242;51.694;10.006;2024-02-21T12:05:52;9.27;;;2.40;;
66429;SDS011;53242;51.694;10.006;2024-02-21T12:08:16;7.40;;;2.67;;
66429;SDS011;53242;51.694;10.006;2024-02-21T12:10:41;8.85;;;2.35;;
66429;SDS011;53242;51.694;10.006;2024-02-21T12:13:07;7.10;;;2.17;;
66429;SDS011;53242;51.694;10.006;2024-02-21T12:15:30;11.00;;;2.65;;
66429;SDS011;53242;51.694;10.006;2024-02-21T12:17:53;8.68;;;2.15;;
66429;SDS011;53242;51.694;10.006;2024-02-21T12:20:15;8.07;;;2.38;;
66429;SDS011;53242;51.694;10.006;2024-02-21T12:22:38;7.20;;;2.38;;
66429;SDS011;53242;51.694;10.006;2024-02-21T12:25:03;5.80;;;1.90;;
66429;SDS011;53242;51.694;10.006;2024-02-21T12:27:26;8.43;;;2.40;;
66429;SDS011;53242;51.694;10.006;2024-02-21T12:29:48;4.00;;;1.70;;
66429;SDS011;53242;51.694;10.006;2024-02-21T12:32:11;4.57;;;1.83;;
66429;SDS011;53242;51.694;10.006;2024-02-21T12:34:33;7.97;;;2.20;;
66429;SDS011;53242;51.694;10.006;2024-02-21T12:36:56;6.30;;;2.30;;
66429;SDS011;53242;51.694;10.006;2024-02-21T12:39:18;6.57;;;2.28;;
66429;SDS011;53242;51.694;10.006;2024-02-21T12:41:40;5.95;;;2.10;;
66429;SDS011;53242;51.694;10.006;2024-02-21T12:46:30;6.72;;;1.67;;
66429;SDS011;53242;51.694;10.006;2024-02-21T12:48:54;7.78;;;2.00;;
66429;SDS011;53242;51.694;10.006;2024-02-21T12:51:16;7.43;;;2.03;;
66429;SDS011;53242;51.694;10.006;2024-02-21T12:53:42;5.97;;;1.83;;
66429;SDS011;53242;51.694;10.006;2024-02-21T12:56:05;6.95;;;1.65;;
66429;SDS011;53242;51.694;10.006;2024-02-21T12:58:29;7.97;;;2.13;;
66429;SDS011;53242;51.694;10.006;2024-02-21T13:00:53;8.60;;;2.20;;
66429;SDS011;53242;51.694;10.006;2024-02-21T13:03:16;7.63;;;2.30;;
66429;SDS011;53242;51.694;10.006;2024-02-21T13:05:38;7.45;;;2.50;;
66429;SDS011;53242;51.694;10.006;2024-02-21T13:08:00;7.15;;;2.40;;
66429;SDS011;53242;51.694;10.006;2024-02-21T13:10:23;6.53;;;1.88;;
66429;SDS011;53242;51.694;10.006;2024-02-21T13:12:46;6.75;;;1.80;;
66429;SDS011;53242;51.694;10.006;2024-02-21T13:15:08;5.60;;;1.80;;
66429;SDS011;53242;51.694;10.006;2024-02-21T13:17:33;7.82;;;2.08;;
66429;SDS011;53242;51.694;10.006;2024-02-21T13:19:56;6.45;;;2.03;;
66429;SDS011;53242;51.694;10.006;2024-02-21T13:22:18;7.57;;;2.83;;
66429;SDS011;53242;51.694;10.006;2024-02-21T13:24:44;6.40;;;2.90;;
66429;SDS011;53242;51.694;10.006;2024-02-21T13:27:06;5.60;;;2.10;;
66429;SDS011;53242;51.694;10.006;2024-02-21T13:29:29;6.60;;;2.55;;
66429;SDS011;53242;51.694;10.006;2024-02-21T13:31:51;15.57;;;4.32;;
66429;SDS011;53242;51.694;10.006;2024-02-21T13:34:13;9.00;;;2.97;;
66429;SDS011;53242;51.694;10.006;2024-02-21T13:36:36;6.13;;;2.45;;
66429;SDS011;53242;51.694;10.006;2024-02-21T13:38:58;12.20;;;3.67;;
66429;SDS011;53242;51.694;10.006;2024-02-21T13:41:20;17.63;;;6.55;;
66429;SDS011;53242;51.694;10.006;2024-02-21T13:43:45;15.05;;;5.05;;
66429;SDS011;53242;51.694;10.006;2024-02-21T13:46:08;10.23;;;3.65;;
66429;SDS011;53242;51.694;10.006;2024-02-21T13:48:33;10.48;;;3.13;;
66429;SDS011;53242;51.694;10.006;2024-02-21T13:50:55;13.02;;;3.90;;
66429;SDS011;53242;51.694;10.006;2024-02-21T13:53:18;9.63;;;2.95;;
66429;SDS011;53242;51.694;10.006;2024-02-21T13:55:40;7.22;;;2.55;;
66429;SDS011;53242;51.694;10.006;2024-02-21T13:58:03;11.10;;;2.83;;
66429;SDS011;53242;51.694;10.006;2024-02-21T14:00:25;8.40;;;2.78;;
66429;SDS011;53242;51.694;10.006;2024-02-21T14:02:49;4.65;;;1.83;;
66429;SDS011;53242;51.694;10.006;2024-02-21T14:05:11;8.73;;;2.28;;
66429;SDS011;53242;51.694;10.006;2024-02-21T14:07:34;9.85;;;2.22;;
66429;SDS011;53242;51.694;10.006;2024-02-21T14:09:56;7.97;;;2.50;;
66429;SDS011;53242;51.694;10.006;2024-02-21T14:12:19;11.45;;;2.95;;
66429;SDS011;53242;51.694;10.006;2024-02-21T14:14:43;7.10;;;2.38;;
66429;SDS011;53242;51.694;10.006;2024-02-21T14:17:06;7.75;;;2.40;;